Time;durP1;ratioP1;P1;durP2;ratioP2;P2;SDS_P1;SDS_P2;PMS_P1;PMS_P2;Temp;Humidity;BMP_temperature;BMP_pressure;BME280_temperature;BME280_humidity;BME280_pressure;Samples;Min_cycle;Max_cycle;Signal;HPM_P1;HPM_P2
2022/05/20 00:00:44;;;;;;;;;2.00;0.00;;;;;;;;5051391;28;45331;-70
2022/05/20 00:03:10;;;;;;;;;1.00;1.00;;;;;;;;5057139;28;45704;-71
2022/05/20 00:05:36;;;;;;;;;1.00;1.00;;;;;;;;5010654;28;1156431;-70
2022/05/20 00:08:01;;;;;;;;;1.00;1.00;;;;;;;;5059094;28;45538;-70
2022/05/20 00:10:27;;;;;;;;;2.00;1.00;;;;;;;;5052846;28;45401;-70
2022/05/20 00:12:53;;;;;;;;;1.00;1.00;;;;;;;;5059568;28;45382;-70
2022/05/20 00:15:20;;;;;;;;;0.67;0.67;;;;;;;;5053148;28;45595;-70
2022/05/20 00:17:46;;;;;;;;;2.00;0.67;;;;;;;;5054744;28;45201;-70
2022/05/20 00:20:12;;;;;;;;;3.33;1.00;;;;;;;;5053948;28;45323;-70
2022/05/20 00:22:38;;;;;;;;;0.33;0.00;;;;;;;;5055755;28;45595;-70
2022/05/20 00:27:47;;;;;;;;;0.67;0.67;;;;;;;;5056594;28;45383;-70
2022/05/20 00:30:13;;;;;;;;;2.00;0.67;;;;;;;;5056487;28;45449;-70
2022/05/20 00:32:40;;;;;;;;;0.67;0.67;;;;;;;;5057928;28;45291;-71
2022/05/20 00:35:06;;;;;;;;;3.00;1.00;;;;;;;;5050342;28;45318;-70
2022/05/20 00:37:31;;;;;;;;;0.67;0.67;;;;;;;;5056485;28;45299;-71
2022/05/20 00:39:56;;;;;;;;;1.00;1.00;;;;;;;;5051924;28;45204;-70
2022/05/20 00:42:21;;;;;;;;;0.67;0.67;;;;;;;;5056880;28;47084;-70
2022/05/20 00:44:47;;;;;;;;;2.00;0.67;;;;;;;;5051551;28;46121;-70
2022/05/20 00:47:13;;;;;;;;;0.00;0.00;;;;;;;;5056199;28;45416;-70
2022/05/20 00:49:41;;;;;;;;;0.00;0.00;;;;;;;;5051880;28;45511;-70
2022/05/20 00:52:09;;;;;;;;;2.00;1.00;;;;;;;;5056634;28;45374;-70
2022/05/20 00:54:37;;;;;;;;;0.00;0.00;;;;;;;;5051129;28;45371;-70
2022/05/20 00:57:11;;;;;;;;;0.67;0.67;;;;;;;;5057209;28;45300;-70
2022/05/20 00:59:39;;;;;;;;;2.00;0.33;;;;;;;;5052221;28;45310;-70
2022/05/20 01:02:08;;;;;;;;;1.00;1.00;;;;;;;;5058069;28;45245;-70
2022/05/20 01:04:33;;;;;;;;;1.33;1.33;;;;;;;;5048784;28;47424;-70
2022/05/20 01:06:59;;;;;;;;;1.00;1.00;;;;;;;;5060775;28;45375;-70
2022/05/20 01:09:24;;;;;;;;;0.67;0.67;;;;;;;;5054940;28;45317;-70
2022/05/20 01:11:50;;;;;;;;;0.67;0.67;;;;;;;;5059891;28;46415;-70
2022/05/20 01:14:19;;;;;;;;;1.67;0.33;;;;;;;;5055856;28;45302;-70
2022/05/20 01:16:44;;;;;;;;;0.00;0.00;;;;;;;;5056714;28;45222;-70
2022/05/20 01:19:13;;;;;;;;;0.00;0.00;;;;;;;;5056790;28;45839;-70
2022/05/20 01:21:38;;;;;;;;;0.00;0.00;;;;;;;;5057504;28;45281;-70
2022/05/20 01:24:04;;;;;;;;;1.00;1.00;;;;;;;;5051826;28;45433;-70
2022/05/20 01:26:29;;;;;;;;;0.67;0.67;;;;;;;;5058231;28;45262;-70
2022/05/20 01:28:54;;;;;;;;;4.00;1.00;;;;;;;;5058809;28;45271;-70
2022/05/20 01:31:19;;;;;;;;;3.67;1.00;;;;;;;;5059192;28;45324;-70
2022/05/20 01:33:47;;;;;;;;;2.00;1.00;;;;;;;;5058893;28;48155;-70
2022/05/20 01:36:17;;;;;;;;;0.33;0.33;;;;;;;;5060759;28;45287;-70
2022/05/20 01:38:42;;;;;;;;;0.67;0.00;;;;;;;;5058971;28;45643;-70
2022/05/20 01:41:10;;;;;;;;;0.33;0.33;;;;;;;;5048263;28;46156;-70
2022/05/20 01:43:35;;;;;;;;;0.00;0.00;;;;;;;;5058196;28;48432;-70
2022/05/20 01:46:25;;;;;;;;;0.00;0.00;;;;;;;;5049872;28;45242;-70
2022/05/20 01:48:56;;;;;;;;;1.33;0.67;;;;;;;;5059227;28;45225;-70
2022/05/20 01:51:23;;;;;;;;;1.00;1.00;;;;;;;;5069481;28;46027;-70
2022/05/20 01:53:52;;;;;;;;;0.00;0.00;;;;;;;;5052381;28;46014;-70
2022/05/20 01:56:36;;;;;;;;;4.00;1.00;;;;;;;;5056279;28;45399;-70
2022/05/20 01:59:12;;;;;;;;;0.33;0.33;;;;;;;;5051096;28;45516;-70
2022/05/20 02:01:45;;;;;;;;;1.33;0.67;;;;;;;;5053330;28;45510;-70
2022/05/20 02:04:15;;;;;;;;;0.33;0.33;;;;;;;;5055751;28;46459;-70
2022/05/20 02:06:43;;;;;;;;;1.00;0.67;;;;;;;;5059015;28;45439;-70
2022/05/20 02:09:11;;;;;;;;;2.67;1.00;;;;;;;;5055906;28;45211;-70
2022/05/20 02:11:40;;;;;;;;;0.00;0.00;;;;;;;;5058546;28;45285;-70
2022/05/20 02:14:24;;;;;;;;;0.00;0.00;;;;;;;;5056439;28;48222;-70
2022/05/20 02:17:01;;;;;;;;;2.00;1.00;;;;;;;;5050508;28;45261;-70
2022/05/20 02:19:44;;;;;;;;;0.33;0.33;;;;;;;;5055202;28;45409;-70
2022/05/20 02:22:12;;;;;;;;;3.67;1.67;;;;;;;;5058815;28;46018;-70
2022/05/20 02:24:40;;;;;;;;;1.00;1.00;;;;;;;;5055543;28;45316;-70
2022/05/20 02:27:07;;;;;;;;;1.00;1.00;;;;;;;;5058352;28;45177;-70
2022/05/20 02:29:51;;;;;;;;;2.33;1.00;;;;;;;;5056328;28;45451;-70
2022/05/20 02:32:30;;;;;;;;;2.00;1.00;;;;;;;;5072731;27;46141;-70
2022/05/20 02:34:56;;;;;;;;;0.00;0.00;;;;;;;;5052301;28;46027;-70
2022/05/20 02:37:23;;;;;;;;;1.00;1.00;;;;;;;;5053117;28;45427;-70
2022/05/20 02:39:49;;;;;;;;;1.00;1.00;;;;;;;;5054690;28;45390;-70
2022/05/20 02:42:14;;;;;;;;;2.00;1.00;;;;;;;;5053714;28;46235;-70
2022/05/20 02:44:39;;;;;;;;;0.67;0.67;;;;;;;;5052263;28;47204;-70
2022/05/20 02:47:04;;;;;;;;;0.67;0.67;;;;;;;;5060142;28;45203;-70
2022/05/20 02:49:30;;;;;;;;;1.33;1.33;;;;;;;;5051671;28;45514;-70
2022/05/20 02:51:55;;;;;;;;;1.00;0.67;;;;;;;;5054368;28;45924;-70
2022/05/20 02:54:20;;;;;;;;;3.00;0.00;;;;;;;;5053724;28;45360;-70
2022/05/20 02:56:45;;;;;;;;;0.67;0.67;;;;;;;;5059501;28;45294;-71
2022/05/20 03:04:40;;;;;;;;;1.67;1.00;;;;;;;;5052469;28;45366;-70
2022/05/20 03:07:05;;;;;;;;;3.33;0.67;;;;;;;;5058279;28;46407;-70
2022/05/20 03:09:30;;;;;;;;;2.00;1.00;;;;;;;;5052961;28;45273;-70
2022/05/20 03:11:55;;;;;;;;;1.00;1.00;;;;;;;;5060000;28;45177;-70
2022/05/20 03:14:21;;;;;;;;;1.67;1.00;;;;;;;;5054356;28;45278;-70
2022/05/20 03:16:47;;;;;;;;;2.00;1.33;;;;;;;;5055675;28;45355;-70
2022/05/20 03:19:12;;;;;;;;;1.67;1.00;;;;;;;;5054722;28;45451;-71
2022/05/20 03:21:38;;;;;;;;;2.67;2.00;;;;;;;;5054933;28;45913;-71
2022/05/20 03:24:04;;;;;;;;;4.00;4.00;;;;;;;;5052100;28;47298;-70
2022/05/20 03:26:30;;;;;;;;;5.67;5.33;;;;;;;;5057020;28;45357;-71
2022/05/20 03:28:57;;;;;;;;;5.33;4.00;;;;;;;;5056752;28;45332;-70
2022/05/20 03:31:22;;;;;;;;;2.00;2.00;;;;;;;;5053391;28;47383;-70
2022/05/20 03:33:47;;;;;;;;;5.00;2.33;;;;;;;;5057031;28;45476;-70
2022/05/20 03:36:14;;;;;;;;;2.00;2.00;;;;;;;;5050336;28;45288;-70
2022/05/20 03:38:39;;;;;;;;;3.00;3.00;;;;;;;;5057190;28;45557;-70
2022/05/20 03:41:04;;;;;;;;;1.00;1.00;;;;;;;;5051237;28;45498;-70
2022/05/20 03:43:30;;;;;;;;;2.33;2.33;;;;;;;;5063937;28;47334;-70
2022/05/20 03:45:55;;;;;;;;;1.00;1.00;;;;;;;;5053788;28;45905;-70
2022/05/20 03:48:21;;;;;;;;;4.00;2.00;;;;;;;;5059409;28;45282;-70
2022/05/20 03:50:47;;;;;;;;;2.00;2.00;;;;;;;;5052210;28;45387;-70
2022/05/20 03:53:12;;;;;;;;;3.33;1.00;;;;;;;;5058553;28;45672;-70
2022/05/20 03:55:37;;;;;;;;;3.00;1.00;;;;;;;;5052403;28;45465;-70
2022/05/20 03:58:03;;;;;;;;;1.00;1.00;;;;;;;;5060355;28;45379;-70
2022/05/20 04:00:28;;;;;;;;;1.00;1.00;;;;;;;;5052558;28;45370;-71
2022/05/20 04:02:53;;;;;;;;;3.00;2.00;;;;;;;;5058921;28;45403;-70
2022/05/20 04:05:19;;;;;;;;;2.67;2.33;;;;;;;;5050965;28;46191;-70
2022/05/20 04:07:44;;;;;;;;;2.33;2.33;;;;;;;;5053914;28;45387;-70
2022/05/20 04:10:10;;;;;;;;;3.00;3.00;;;;;;;;5052689;28;45466;-70
2022/05/20 04:12:40;;;;;;;;;2.00;2.00;;;;;;;;5054996;28;45948;-70
2022/05/20 04:15:07;;;;;;;;;1.67;1.67;;;;;;;;5054315;28;45236;-70
2022/05/20 04:17:32;;;;;;;;;1.67;1.67;;;;;;;;5056012;28;45311;-70
2022/05/20 04:19:58;;;;;;;;;4.00;3.00;;;;;;;;5055078;28;45598;-70
2022/05/20 04:22:30;;;;;;;;;2.67;2.67;;;;;;;;5057111;28;46149;-70
2022/05/20 04:24:56;;;;;;;;;1.67;1.67;;;;;;;;5051539;28;45941;-70
2022/05/20 04:27:21;;;;;;;;;2.00;2.00;;;;;;;;5054054;28;45317;-70
2022/05/20 04:29:46;;;;;;;;;2.33;2.33;;;;;;;;5051697;28;46045;-70
2022/05/20 04:32:12;;;;;;;;;4.33;2.33;;;;;;;;5053418;28;45388;-70
2022/05/20 04:34:37;;;;;;;;;2.33;2.33;;;;;;;;5054727;28;45434;-70
2022/05/20 04:37:02;;;;;;;;;2.00;2.00;;;;;;;;5050007;28;45384;-71
2022/05/20 04:39:28;;;;;;;;;4.00;3.00;;;;;;;;5055665;28;46989;-70
2022/05/20 04:47:22;;;;;;;;;5.33;2.67;;;;;;;;5061739;28;45324;-71
2022/05/20 04:49:48;;;;;;;;;5.00;3.00;;;;;;;;5054677;28;45422;-71
2022/05/20 04:52:13;;;;;;;;;3.00;3.00;;;;;;;;5060172;28;47391;-71
2022/05/20 04:54:50;;;;;;;;;6.00;3.00;;;;;;;;5055055;28;45425;-69
2022/05/20 04:57:18;;;;;;;;;4.00;4.00;;;;;;;;5057500;28;45513;-70
2022/05/20 04:59:43;;;;;;;;;3.67;3.67;;;;;;;;5054752;28;45557;-72
2022/05/20 05:02:09;;;;;;;;;2.00;2.00;;;;;;;;5057543;28;45316;-71
2022/05/20 05:04:34;;;;;;;;;4.67;3.67;;;;;;;;5054589;28;45489;-70
2022/05/20 05:06:59;;;;;;;;;5.00;4.00;;;;;;;;5052392;28;45312;-70
2022/05/20 05:09:24;;;;;;;;;3.33;3.00;;;;;;;;5054912;28;45327;-71
2022/05/20 05:11:50;;;;;;;;;4.67;2.67;;;;;;;;5060885;28;46133;-70
2022/05/20 05:14:15;;;;;;;;;4.00;4.00;;;;;;;;5056616;28;45483;-71
2022/05/20 05:16:41;;;;;;;;;7.33;3.33;;;;;;;;5057127;28;45268;-71
2022/05/20 05:19:06;;;;;;;;;4.67;3.00;;;;;;;;5056825;28;45630;-70
2022/05/20 05:21:31;;;;;;;;;3.33;3.33;;;;;;;;5060504;28;45346;-70
2022/05/20 05:24:00;;;;;;;;;5.33;5.00;;;;;;;;5057750;28;46040;-71
2022/05/20 05:26:26;;;;;;;;;4.67;3.00;;;;;;;;5062735;28;45431;-71
2022/05/20 05:28:51;;;;;;;;;3.33;2.00;;;;;;;;5057956;28;45754;-70
2022/05/20 05:31:16;;;;;;;;;5.00;5.00;;;;;;;;5060796;28;45470;-71
2022/05/20 05:33:42;;;;;;;;;4.00;2.67;;;;;;;;5059232;28;45450;-70
2022/05/20 05:36:07;;;;;;;;;5.00;3.67;;;;;;;;5052894;28;45510;-70
2022/05/20 05:38:32;;;;;;;;;3.67;3.67;;;;;;;;5059264;28;45360;-70
2022/05/20 05:40:58;;;;;;;;;5.33;4.00;;;;;;;;5060493;28;45451;-70
2022/05/20 05:43:24;;;;;;;;;3.33;2.67;;;;;;;;5060778;28;45335;-69
2022/05/20 05:45:49;;;;;;;;;5.00;4.00;;;;;;;;5055823;28;45452;-71
2022/05/20 05:48:17;;;;;;;;;6.00;4.00;;;;;;;;5059752;28;47101;-70
2022/05/20 05:50:43;;;;;;;;;5.00;4.00;;;;;;;;5053750;28;46131;-70
2022/05/20 05:53:12;;;;;;;;;5.67;4.00;;;;;;;;5060749;28;45449;-70
2022/05/20 05:55:39;;;;;;;;;4.00;4.00;;;;;;;;5053829;28;45260;-70
2022/05/20 05:58:04;;;;;;;;;4.67;3.67;;;;;;;;5058870;28;46327;-69
2022/05/20 06:00:29;;;;;;;;;5.00;5.00;;;;;;;;5057552;28;45347;-68
2022/05/20 06:02:54;;;;;;;;;5.67;5.67;;;;;;;;5077808;27;45554;-68
2022/05/20 06:05:20;;;;;;;;;9.00;6.00;;;;;;;;5054068;28;45217;-69
2022/05/20 06:07:46;;;;;;;;;6.33;5.00;;;;;;;;5060139;28;45236;-72
2022/05/20 06:10:12;;;;;;;;;7.00;6.00;;;;;;;;5056838;28;45276;-71
2022/05/20 06:12:37;;;;;;;;;8.67;6.00;;;;;;;;5059897;28;45436;-71
2022/05/20 06:15:07;;;;;;;;;5.33;4.67;;;;;;;;5075611;27;45344;-71
2022/05/20 06:17:32;;;;;;;;;7.50;6.00;;;;;;;;5047680;28;45519;-71
2022/05/20 06:19:58;;;;;;;;;9.67;7.67;;;;;;;;5053913;28;46454;-72
2022/05/20 06:22:23;;;;;;;;;7.00;7.00;;;;;;;;5052545;28;45406;-70
2022/05/20 06:24:48;;;;;;;;;9.00;6.67;;;;;;;;5049691;28;45570;-71
2022/05/20 06:27:13;;;;;;;;;5.00;5.00;;;;;;;;5059368;28;45413;-71
2022/05/20 06:29:38;;;;;;;;;6.67;4.00;;;;;;;;5076877;27;46152;-71
2022/05/20 06:32:04;;;;;;;;;7.67;5.33;;;;;;;;5057990;28;45438;-71
2022/05/20 06:39:48;;;;;;;;;6.67;6.67;;;;;;;;5055341;28;45502;-71
2022/05/20 06:40:05;;;;;;;;;7.33;6.33;;;;;;;;5057710;28;45386;-71
2022/05/20 06:42:31;;;;;;;;;6.00;6.00;;;;;;;;5059182;28;45681;-72
2022/05/20 06:44:57;;;;;;;;;11.00;8.33;;;;;;;;5056666;28;45162;-72
2022/05/20 06:47:22;;;;;;;;;12.00;9.33;;;;;;;;5058683;28;45431;-71
2022/05/20 06:49:47;;;;;;;;;11.67;10.00;;;;;;;;5056335;28;45359;-72
2022/05/20 06:52:13;;;;;;;;;12.00;10.33;;;;;;;;5057514;28;45158;-72
2022/05/20 06:54:38;;;;;;;;;8.00;8.00;;;;;;;;5056760;28;45234;-70
2022/05/20 06:57:04;;;;;;;;;9.33;7.67;;;;;;;;5057244;28;45415;-71
2022/05/20 06:59:29;;;;;;;;;9.00;6.67;;;;;;;;5052068;28;47332;-72
2022/05/20 07:01:55;;;;;;;;;7.00;7.00;;;;;;;;5058461;28;45295;-71
2022/05/20 07:04:20;;;;;;;;;8.67;8.33;;;;;;;;5051786;28;45617;-72
2022/05/20 07:06:46;;;;;;;;;12.33;10.33;;;;;;;;5058273;28;45438;-71
2022/05/20 07:09:11;;;;;;;;;12.00;12.00;;;;;;;;5054931;28;45523;-71
2022/05/20 07:11:36;;;;;;;;;13.33;13.00;;;;;;;;5057713;28;45390;-71
2022/05/20 07:14:02;;;;;;;;;11.00;10.33;;;;;;;;5056694;28;45552;-71
2022/05/20 07:16:29;;;;;;;;;12.00;12.00;;;;;;;;5057939;28;45307;-71
2022/05/20 07:18:54;;;;;;;;;18.67;17.67;;;;;;;;5055696;28;47054;-71
2022/05/20 07:21:20;;;;;;;;;19.00;16.00;;;;;;;;5088684;27;45478;-71
2022/05/20 07:23:46;;;;;;;;;23.00;18.67;;;;;;;;5048944;28;45486;-71
2022/05/20 07:26:13;;;;;;;;;26.33;20.00;;;;;;;;5055817;28;47012;-71
2022/05/20 07:28:38;;;;;;;;;15.33;15.00;;;;;;;;5057144;28;45378;-71
2022/05/20 07:31:06;;;;;;;;;17.33;17.33;;;;;;;;5053344;28;45222;-71
2022/05/20 07:33:32;;;;;;;;;12.33;12.00;;;;;;;;5056117;28;45303;-71
2022/05/20 07:35:58;;;;;;;;;16.33;11.67;;;;;;;;5053258;28;47261;-72
2022/05/20 07:38:23;;;;;;;;;12.33;10.67;;;;;;;;5056714;28;46111;-72
2022/05/20 07:40:50;;;;;;;;;14.67;12.67;;;;;;;;5056596;28;45400;-72
2022/05/20 07:43:16;;;;;;;;;14.00;11.00;;;;;;;;5057912;28;45410;-72
2022/05/20 07:45:41;;;;;;;;;14.00;12.33;;;;;;;;5051740;28;45648;-72
2022/05/20 07:48:06;;;;;;;;;9.67;9.67;;;;;;;;5058440;28;46295;-72
2022/05/20 07:50:36;;;;;;;;;13.33;12.67;;;;;;;;5051719;28;45573;-72
2022/05/20 07:53:20;;;;;;;;;11.67;10.33;;;;;;;;5073439;27;45368;-72
2022/05/20 07:55:47;;;;;;;;;16.67;13.67;;;;;;;;5050810;28;45240;-72
2022/05/20 07:58:14;;;;;;;;;14.00;13.00;;;;;;;;5057925;28;46305;-72
2022/05/20 08:00:40;;;;;;;;;12.33;11.00;;;;;;;;5053795;28;46333;-71
2022/05/20 08:03:07;;;;;;;;;11.00;10.67;;;;;;;;5053597;28;45335;-71
2022/05/20 08:05:35;;;;;;;;;15.67;13.67;;;;;;;;5051488;28;45290;-71
2022/05/20 08:08:01;;;;;;;;;15.00;12.00;;;;;;;;5056714;28;46474;-71
2022/05/20 08:10:31;;;;;;;;;11.33;11.00;;;;;;;;5052090;28;45520;-71
2022/05/20 08:12:57;;;;;;;;;18.67;18.00;;;;;;;;5054689;28;45597;-71
2022/05/20 08:15:22;;;;;;;;;17.00;13.33;;;;;;;;5054564;28;45381;-71
2022/05/20 08:17:47;;;;;;;;;19.33;19.00;;;;;;;;5060144;28;47025;-72
2022/05/20 08:20:18;;;;;;;;;21.33;17.33;;;;;;;;5057503;28;45363;-71
2022/05/20 08:22:43;;;;;;;;;20.33;16.67;;;;;;;;5062611;28;45656;-71
2022/05/20 08:25:09;;;;;;;;;17.00;14.33;;;;;;;;5053980;28;45496;-70
2022/05/20 08:27:34;;;;;;;;;17.67;16.00;;;;;;;;5058246;28;46220;-71
2022/05/20 08:30:14;;;;;;;;;14.67;13.00;;;;;;;;5055595;28;45383;-71
2022/05/20 08:32:39;;;;;;;;;24.33;16.33;;;;;;;;5058846;28;45406;-71
2022/05/20 08:35:05;;;;;;;;;17.33;15.33;;;;;;;;5055750;28;45529;-71
2022/05/20 08:37:31;;;;;;;;;19.00;15.67;;;;;;;;5060011;28;46982;-71
2022/05/20 08:39:56;;;;;;;;;20.33;18.33;;;;;;;;5054953;28;45307;-71
2022/05/20 08:42:23;;;;;;;;;17.00;15.67;;;;;;;;5059006;28;45782;-71
2022/05/20 08:44:48;;;;;;;;;19.67;17.33;;;;;;;;5054419;28;45342;-71
2022/05/20 08:47:40;;;;;;;;;19.67;17.33;;;;;;;;5061283;28;46414;-71
2022/05/20 08:50:07;;;;;;;;;17.00;12.67;;;;;;;;5056422;28;45309;-71
2022/05/20 08:52:33;;;;;;;;;26.00;20.33;;;;;;;;5060267;28;45344;-70
2022/05/20 08:54:58;;;;;;;;;18.67;18.67;;;;;;;;5058669;28;45451;-69
2022/05/20 08:57:25;;;;;;;;;19.33;18.33;;;;;;;;5060715;28;45518;-70
2022/05/20 08:59:51;;;;;;;;;24.00;20.67;;;;;;;;5059429;28;45384;-70
2022/05/20 09:02:16;;;;;;;;;23.67;18.67;;;;;;;;5061005;28;45493;-71
2022/05/20 09:04:41;;;;;;;;;24.67;22.33;;;;;;;;5055514;28;45689;-71
2022/05/20 09:07:09;;;;;;;;;24.00;19.33;;;;;;;;5061368;28;45292;-71
2022/05/20 09:09:47;;;;;;;;;24.00;20.67;;;;;;;;5053669;28;46045;-72
2022/05/20 09:12:24;;;;;;;;;28.00;21.67;;;;;;;;5057495;28;45425;-72
2022/05/20 09:17:42;;;;;;;;;24.00;20.00;;;;;;;;5054240;28;46272;-72
2022/05/20 09:20:07;;;;;;;;;26.33;18.33;;;;;;;;5047828;28;45672;-71
2022/05/20 09:22:36;;;;;;;;;20.33;19.00;;;;;;;;5046573;28;45367;-72
2022/05/20 09:25:03;;;;;;;;;23.00;19.67;;;;;;;;5053683;28;47105;-72
2022/05/20 09:27:29;;;;;;;;;26.00;21.00;;;;;;;;5055564;28;45391;-72
2022/05/20 09:29:54;;;;;;;;;19.00;17.33;;;;;;;;5055547;28;45306;-72
2022/05/20 09:32:22;;;;;;;;;17.00;16.00;;;;;;;;5053984;28;45486;-71
2022/05/20 09:34:53;;;;;;;;;25.33;21.00;;;;;;;;5047968;28;46418;-77
2022/05/20 09:37:20;;;;;;;;;24.67;23.00;;;;;;;;5058179;28;45381;-73
2022/05/20 09:39:47;;;;;;;;;20.00;17.00;;;;;;;;5053754;28;45358;-73
2022/05/20 09:42:20;;;;;;;;;24.67;19.00;;;;;;;;5055256;28;45534;-72
2022/05/20 09:44:47;;;;;;;;;30.67;28.00;;;;;;;;5053961;28;45422;-73
2022/05/20 09:47:18;;;;;;;;;27.33;25.33;;;;;;;;5060299;28;46313;-69
2022/05/20 09:49:48;;;;;;;;;26.67;25.00;;;;;;;;5053762;28;45375;-70
2022/05/20 09:52:18;;;;;;;;;31.67;25.67;;;;;;;;5060381;28;45431;-71
2022/05/20 09:54:47;;;;;;;;;25.33;24.00;;;;;;;;5052950;28;45493;-71
2022/05/20 09:57:13;;;;;;;;;33.67;26.67;;;;;;;;5060134;28;46266;-70
2022/05/20 09:59:58;;;;;;;;;29.00;24.67;;;;;;;;5057872;28;45411;-70
2022/05/20 10:02:30;;;;;;;;;31.67;29.00;;;;;;;;5059628;28;45355;-70
2022/05/20 10:05:10;;;;;;;;;33.67;32.33;;;;;;;;5057423;28;45413;-69
2022/05/20 10:07:47;;;;;;;;;36.33;31.67;;;;;;;;5059590;28;46457;-69
2022/05/20 10:10:16;;;;;;;;;30.00;26.50;;;;;;;;5055499;28;45456;-69
2022/05/20 10:12:44;;;;;;;;;34.00;27.33;;;;;;;;5056551;28;45240;-69
2022/05/20 10:15:17;;;;;;;;;32.00;29.67;;;;;;;;5055217;28;45504;-70
2022/05/20 10:18:02;;;;;;;;;29.33;27.67;;;;;;;;5058482;28;47096;-69
2022/05/20 10:20:31;;;;;;;;;30.00;28.33;;;;;;;;5056127;28;45558;-68
2022/05/20 10:23:06;;;;;;;;;31.33;27.00;;;;;;;;5059335;28;45324;-68
2022/05/20 10:25:38;;;;;;;;;30.67;23.33;;;;;;;;5055881;28;45758;-68
2022/05/20 10:28:13;;;;;;;;;36.33;30.00;;;;;;;;5056067;28;45353;-68
2022/05/20 10:33:33;;;;;;;;;30.00;27.67;;;;;;;;5059170;28;45473;-68
2022/05/20 10:36:06;;;;;;;;;35.67;30.00;;;;;;;;5052461;28;45571;-68
2022/05/20 10:38:31;;;;;;;;;32.00;28.33;;;;;;;;5056696;28;48281;-68
2022/05/20 10:40:59;;;;;;;;;34.33;29.33;;;;;;;;5049536;28;45399;-68
2022/05/20 10:49:33;;;;;;;;;32.33;30.33;;;;;;;;5055166;28;45417;-68
2022/05/20 10:52:05;;;;;;;;;32.67;30.67;;;;;;;;5070539;28;45314;-68
2022/05/20 10:54:38;;;;;;;;;35.67;31.33;;;;;;;;5050611;28;45392;-68
2022/05/20 10:57:18;;;;;;;;;34.67;30.33;;;;;;;;5057620;28;45274;-68
2022/05/20 10:59:50;;;;;;;;;32.00;28.33;;;;;;;;5056447;28;46292;-68
2022/05/20 11:02:28;;;;;;;;;35.67;31.00;;;;;;;;5057836;28;45319;-68
2022/05/20 11:05:02;;;;;;;;;38.00;31.00;;;;;;;;5055921;28;45784;-68
2022/05/20 11:07:45;;;;;;;;;27.33;26.33;;;;;;;;5058898;28;45184;-68
2022/05/20 11:10:14;;;;;;;;;22.33;22.33;;;;;;;;5054729;28;47202;-69
2022/05/20 11:12:42;;;;;;;;;22.00;22.00;;;;;;;;5057463;28;45277;-69
2022/05/20 11:15:10;;;;;;;;;25.67;24.33;;;;;;;;5054131;28;45730;-69
2022/05/20 11:17:54;;;;;;;;;21.00;20.33;;;;;;;;5058878;28;45641;-69
2022/05/20 11:20:40;;;;;;;;;24.33;22.33;;;;;;;;5055988;28;46620;-70
2022/05/20 11:23:24;;;;;;;;;22.00;20.67;;;;;;;;5058476;28;45320;-68
2022/05/20 11:25:50;;;;;;;;;25.00;23.67;;;;;;;;5055722;28;45658;-68
2022/05/20 11:28:15;;;;;;;;;24.00;19.67;;;;;;;;5059356;28;45396;-68
2022/05/20 11:30:47;;;;;;;;;25.00;22.00;;;;;;;;5057046;28;45430;-68
2022/05/20 11:33:18;;;;;;;;;20.67;19.67;;;;;;;;5058547;28;45461;-68
2022/05/20 11:35:43;;;;;;;;;23.00;22.00;;;;;;;;5052527;28;45453;-68
2022/05/20 11:38:08;;;;;;;;;22.67;20.33;;;;;;;;5059009;28;45269;-68
2022/05/20 11:40:36;;;;;;;;;22.00;22.00;;;;;;;;5050165;28;46228;-68
2022/05/20 11:43:13;;;;;;;;;18.67;18.00;;;;;;;;5059195;28;45322;-68
2022/05/20 11:45:48;;;;;;;;;19.00;19.00;;;;;;;;5051989;28;45260;-69
2022/05/20 11:48:25;;;;;;;;;21.33;17.33;;;;;;;;5058311;28;45378;-68
2022/05/20 11:51:09;;;;;;;;;22.00;20.33;;;;;;;;5055340;28;45161;-68
2022/05/20 11:53:42;;;;;;;;;18.33;17.33;;;;;;;;5057052;28;45256;-68
2022/05/20 11:56:16;;;;;;;;;20.00;18.00;;;;;;;;5058061;28;45469;-68
2022/05/20 11:58:47;;;;;;;;;18.33;18.33;;;;;;;;5057393;28;45335;-68
2022/05/20 12:01:13;;;;;;;;;22.67;17.00;;;;;;;;5055187;28;46278;-68
2022/05/20 12:06:25;;;;;;;;;18.33;17.00;;;;;;;;5055570;28;45402;-68
2022/05/20 12:08:57;;;;;;;;;13.00;13.00;;;;;;;;5055125;28;47526;-68
2022/05/20 12:11:31;;;;;;;;;15.67;14.00;;;;;;;;5051255;28;45423;-68
2022/05/20 12:14:16;;;;;;;;;17.00;16.67;;;;;;;;5056607;28;45464;-68
2022/05/20 12:16:54;;;;;;;;;14.00;14.00;;;;;;;;5053429;28;45321;-68
2022/05/20 12:24:51;;;;;;;;;15.00;15.00;;;;;;;;5046854;28;45411;-68
2022/05/20 12:27:23;;;;;;;;;11.67;10.67;;;;;;;;5080194;27;45474;-69
2022/05/20 12:29:59;;;;;;;;;15.00;13.67;;;;;;;;5054525;28;45442;-68
2022/05/20 12:32:24;;;;;;;;;13.00;11.33;;;;;;;;5058062;28;45472;-69
2022/05/20 12:35:16;;;;;;;;;13.00;12.33;;;;;;;;5054206;28;45313;-69
2022/05/20 12:37:41;;;;;;;;;11.00;11.00;;;;;;;;5055928;28;45328;-69
2022/05/20 12:40:15;;;;;;;;;15.00;13.00;;;;;;;;5052751;28;45297;-69
2022/05/20 12:42:45;;;;;;;;;14.00;11.33;;;;;;;;5058020;28;45591;-69
2022/05/20 12:45:11;;;;;;;;;5.67;5.67;;;;;;;;5052373;28;45379;-69
2022/05/20 12:47:37;;;;;;;;;10.50;10.25;;;;;;;;5055799;28;45454;-68
2022/05/20 12:50:20;;;;;;;;;10.25;10.25;;;;;;;;5055354;28;45376;-69
2022/05/20 12:52:47;;;;;;;;;12.33;9.00;;;;;;;;5056001;28;45458;-69
2022/05/20 12:55:13;;;;;;;;;9.33;8.00;;;;;;;;5076568;27;45440;-69
2022/05/20 12:57:47;;;;;;;;;7.50;7.50;;;;;;;;5057059;28;45428;-68
2022/05/20 13:00:14;;;;;;;;;6.25;6.00;;;;;;;;5055056;28;45420;-69
2022/05/20 13:02:42;;;;;;;;;7.50;7.00;;;;;;;;5060742;28;45225;-69
2022/05/20 13:05:16;;;;;;;;;5.00;5.00;;;;;;;;5055334;28;45383;-69
2022/05/20 13:07:43;;;;;;;;;6.50;6.50;;;;;;;;5048594;28;45221;-69
2022/05/20 13:10:26;;;;;;;;;6.00;5.25;;;;;;;;5054933;28;45714;-70
2022/05/20 13:12:53;;;;;;;;;6.00;6.00;;;;;;;;5058191;28;45417;-68
2022/05/20 13:15:19;;;;;;;;;5.50;4.25;;;;;;;;5058683;28;46637;-69
2022/05/20 13:18:06;;;;;;;;;5.75;5.75;;;;;;;;5060933;28;45541;-68
2022/05/20 13:20:34;;;;;;;;;4.00;4.00;;;;;;;;5058277;28;48075;-69
2022/05/20 13:23:00;;;;;;;;;5.33;4.00;;;;;;;;5060233;28;45297;-69
2022/05/20 13:25:26;;;;;;;;;7.33;5.67;;;;;;;;5058252;28;45332;-69
2022/05/20 13:27:51;;;;;;;;;5.00;5.00;;;;;;;;5051745;28;45366;-69
2022/05/20 13:30:18;;;;;;;;;5.67;5.67;;;;;;;;5052960;28;45703;-68
2022/05/20 13:32:43;;;;;;;;;5.33;5.33;;;;;;;;5053836;28;45323;-69
2022/05/20 13:35:09;;;;;;;;;8.00;8.00;;;;;;;;5053057;28;45440;-69
2022/05/20 13:37:38;;;;;;;;;8.33;8.33;;;;;;;;5060591;28;45372;-67
2022/05/20 13:40:26;;;;;;;;;8.00;7.00;;;;;;;;5056268;28;45400;-69
2022/05/20 13:42:53;;;;;;;;;7.33;7.33;;;;;;;;5044419;28;46245;-70
2022/05/20 13:45:19;;;;;;;;;9.00;8.00;;;;;;;;5049925;28;45435;-71
2022/05/20 13:50:29;;;;;;;;;8.00;7.00;;;;;;;;5053969;28;45384;-71
2022/05/20 13:52:57;;;;;;;;;8.00;6.33;;;;;;;;5059051;28;47465;-71
2022/05/20 13:55:27;;;;;;;;;9.00;8.67;;;;;;;;5054000;28;46467;-71
2022/05/20 13:57:53;;;;;;;;;8.67;7.00;;;;;;;;5060789;28;45330;-71
2022/05/20 14:00:27;;;;;;;;;8.67;8.00;;;;;;;;5052155;28;45678;-71
2022/05/20 14:02:54;;;;;;;;;5.33;5.33;;;;;;;;5058707;28;46003;-71
2022/05/20 14:05:21;;;;;;;;;8.67;8.67;;;;;;;;5053680;28;45422;-71
2022/05/20 14:07:52;;;;;;;;;8.33;8.33;;;;;;;;5055860;28;45273;-72
2022/05/20 14:10:17;;;;;;;;;10.00;9.00;;;;;;;;5050099;28;46223;-71
2022/05/20 14:12:47;;;;;;;;;13.00;10.00;;;;;;;;5067730;28;47179;-75
2022/05/20 14:15:19;;;;;;;;;12.67;12.67;;;;;;;;5055347;28;45441;-72
2022/05/20 14:17:44;;;;;;;;;16.33;14.00;;;;;;;;5061137;28;45331;-72
2022/05/20 14:20:12;;;;;;;;;21.33;17.00;;;;;;;;5059045;28;45288;-72
2022/05/20 14:22:38;;;;;;;;;19.33;19.33;;;;;;;;5059824;28;46172;-72
2022/05/20 14:25:07;;;;;;;;;21.33;19.00;;;;;;;;5057664;28;45552;-71
2022/05/20 14:27:40;;;;;;;;;22.00;22.00;;;;;;;;5059818;28;45315;-71
2022/05/20 14:30:13;;;;;;;;;24.00;21.67;;;;;;;;5053954;28;45260;-71
2022/05/20 14:32:38;;;;;;;;;28.00;24.33;;;;;;;;5057102;28;45291;-71
2022/05/20 14:35:03;;;;;;;;;23.00;23.00;;;;;;;;5057964;28;45469;-71
2022/05/20 14:37:33;;;;;;;;;30.33;26.33;;;;;;;;5059767;28;45576;-71
2022/05/20 14:40:00;;;;;;;;;33.33;29.67;;;;;;;;5057664;28;45493;-71
2022/05/20 14:42:28;;;;;;;;;34.00;31.67;;;;;;;;5059117;28;46436;-72
2022/05/20 14:44:55;;;;;;;;;27.00;27.00;;;;;;;;5056963;28;45215;-72
2022/05/20 14:47:25;;;;;;;;;30.00;29.00;;;;;;;;5051271;28;45250;-71
2022/05/20 14:49:52;;;;;;;;;35.33;29.00;;;;;;;;5048111;28;45343;-72
2022/05/20 14:52:27;;;;;;;;;28.67;23.67;;;;;;;;5058588;28;45269;-72
2022/05/20 14:54:52;;;;;;;;;29.33;26.33;;;;;;;;5054175;28;45387;-71
2022/05/20 14:57:34;;;;;;;;;30.67;28.33;;;;;;;;5055745;28;45335;-71
2022/05/20 15:00:08;;;;;;;;;32.33;28.00;;;;;;;;5051754;28;45528;-72
2022/05/20 15:02:34;;;;;;;;;31.67;30.00;;;;;;;;5060400;28;45343;-71
2022/05/20 15:04:59;;;;;;;;;26.00;26.00;;;;;;;;5056807;28;45346;-72
2022/05/20 15:07:24;;;;;;;;;32.00;27.00;;;;;;;;5059191;28;45493;-71
2022/05/20 15:09:52;;;;;;;;;21.67;19.00;;;;;;;;5056557;28;45330;-72
2022/05/20 15:12:18;;;;;;;;;27.00;23.00;;;;;;;;5058792;28;46355;-73
2022/05/20 15:14:46;;;;;;;;;24.67;21.67;;;;;;;;5056372;28;45674;-72
2022/05/20 15:17:11;;;;;;;;;21.67;21.67;;;;;;;;5057922;28;45490;-72